createdAt,value
2018-12-18T00:01:34.841Z,92.20
2018-12-18T00:04:01.810Z,92.50
2018-12-18T00:06:28.748Z,92.80
2018-12-18T00:08:55.721Z,92.70
2018-12-18T00:11:22.770Z,92.60
2018-12-18T00:13:49.720Z,92.50
2018-12-18T00:16:16.680Z,92.70
2018-12-18T00:18:43.643Z,92.60
2018-12-18T00:21:10.606Z,92.40
2018-12-18T00:23:37.561Z,93.00
2018-12-18T00:26:04.577Z,92.70
2018-12-18T00:28:31.520Z,92.50
2018-12-18T00:30:58.464Z,92.50
2018-12-18T00:33:25.423Z,92.50
2018-12-18T00:35:52.406Z,92.30
2018-12-18T00:38:19.349Z,92.80
2018-12-18T00:40:46.341Z,92.50
2018-12-18T00:43:13.292Z,92.60
2018-12-18T00:45:40.331Z,92.40
2018-12-18T00:48:07.307Z,93.00
2018-12-18T00:50:34.255Z,92.60
2018-12-18T00:53:01.221Z,92.30
2018-12-18T00:55:28.233Z,92.20
2018-12-18T00:57:55.177Z,92.30
2018-12-18T01:00:22.153Z,92.30
2018-12-18T01:02:49.350Z,92.20
2018-12-18T01:05:16.281Z,91.90
2018-12-18T01:07:43.240Z,92.10
2018-12-18T01:10:10.252Z,92.10
2018-12-18T01:12:37.212Z,92.00
2018-12-18T01:15:04.273Z,92.00
2018-12-18T01:17:31.249Z,92.00
2018-12-18T01:19:58.197Z,92.00
2018-12-18T01:22:25.164Z,92.10
2018-12-18T01:24:52.145Z,92.30
2018-12-18T01:27:19.108Z,92.10
2018-12-18T01:29:46.061Z,92.10
2018-12-18T01:32:13.020Z,91.90
2018-12-18T01:34:39.972Z,92.20
2018-12-18T01:37:06.903Z,92.30
2018-12-18T01:39:33.910Z,92.20
2018-12-18T01:42:00.867Z,92.30
2018-12-18T01:44:27.835Z,92.20
2018-12-18T01:46:54.792Z,92.30
2018-12-18T01:49:21.760Z,92.40
2018-12-18T01:51:48.704Z,92.30
2018-12-18T01:54:15.743Z,92.10
2018-12-18T01:56:42.684Z,92.00
2018-12-18T01:59:09.614Z,92.10
2018-12-18T02:01:36.585Z,92.20
2018-12-18T02:04:06.172Z,92.20
2018-12-18T02:06:30.951Z,92.10
2018-12-18T02:08:57.924Z,92.50
2018-12-18T02:11:24.891Z,92.10
2018-12-18T02:13:51.827Z,92.10
2018-12-18T02:16:18.793Z,92.00
2018-12-18T02:18:45.757Z,92.20
2018-12-18T02:21:12.704Z,92.30
2018-12-18T02:23:39.668Z,92.00
2018-12-18T02:26:06.629Z,92.20
2018-12-18T02:28:33.573Z,91.90
2018-12-18T02:31:00.554Z,91.50
2018-12-18T02:33:27.492Z,91.50
2018-12-18T02:35:54.452Z,91.30
2018-12-18T02:38:21.522Z,91.00
2018-12-18T02:40:48.449Z,91.20
2018-12-18T02:43:15.404Z,91.00
2018-12-18T02:45:42.360Z,91.00
2018-12-18T02:48:09.307Z,91.10
2018-12-18T02:50:36.257Z,91.10
2018-12-18T02:53:03.225Z,91.00
2018-12-18T02:55:30.160Z,91.00
2018-12-18T02:57:57.121Z,91.00
2018-12-18T03:00:24.102Z,90.80
2018-12-18T03:02:51.038Z,90.90
2018-12-18T03:05:18.363Z,91.00
2018-12-18T03:07:45.397Z,91.20
2018-12-18T03:10:12.346Z,90.80
2018-12-18T03:12:39.268Z,91.00
2018-12-18T03:15:06.248Z,90.80
2018-12-18T03:17:33.193Z,91.10
2018-12-18T03:20:00.147Z,91.40
2018-12-18T03:22:27.130Z,91.90
2018-12-18T03:24:54.097Z,92.00
2018-12-18T03:27:21.101Z,92.20
2018-12-18T03:29:48.113Z,92.30
2018-12-18T03:32:18.183Z,92.20
2018-12-18T03:34:45.148Z,91.80
2018-12-18T03:37:12.114Z,91.40
2018-12-18T03:39:39.065Z,91.40
2018-12-18T03:42:06.013Z,91.30
2018-12-18T03:44:32.988Z,91.10
2018-12-18T03:46:59.928Z,91.10
2018-12-18T03:49:26.939Z,91.10
2018-12-18T03:51:54.005Z,91.10
2018-12-18T03:54:20.968Z,91.20
2018-12-18T03:56:47.911Z,91.10
2018-12-18T03:59:14.872Z,91.20
2018-12-18T04:01:41.823Z,91.20
2018-12-18T04:04:08.772Z,91.20
2018-12-18T04:06:36.115Z,91.40
2018-12-18T04:09:05.050Z,91.30
2018-12-18T04:11:31.996Z,91.20
2018-12-18T04:13:58.938Z,91.30
2018-12-18T04:16:25.878Z,91.30
2018-12-18T04:18:52.824Z,91.30
2018-12-18T04:21:19.796Z,91.40
2018-12-18T04:23:46.781Z,91.60
2018-12-18T04:26:13.749Z,91.70
2018-12-18T04:28:40.709Z,91.90
2018-12-18T04:31:07.685Z,91.90
2018-12-18T04:33:34.643Z,92.10
2018-12-18T04:36:01.625Z,92.10
2018-12-18T04:38:28.603Z,92.10
2018-12-18T04:40:55.565Z,92.20
2018-12-18T04:43:22.532Z,92.20
2018-12-18T04:45:49.506Z,92.20
2018-12-18T04:48:16.473Z,92.40
2018-12-18T04:50:43.439Z,92.60
2018-12-18T04:53:10.390Z,92.70
2018-12-18T04:55:37.369Z,92.90
2018-12-18T04:58:04.325Z,92.80
2018-12-18T05:00:31.281Z,92.90
2018-12-18T05:02:58.239Z,93.10
2018-12-18T05:05:25.229Z,93.20
2018-12-18T05:07:52.513Z,93.30
2018-12-18T05:10:19.451Z,93.30
2018-12-18T05:12:46.416Z,93.90
2018-12-18T05:15:13.359Z,93.90
2018-12-18T05:17:40.293Z,93.80
2018-12-18T05:20:07.276Z,94.00
2018-12-18T05:22:34.219Z,94.00
2018-12-18T05:25:01.165Z,94.10
2018-12-18T05:27:28.152Z,94.30
2018-12-18T05:29:55.107Z,94.40
2018-12-18T05:32:22.052Z,94.40
2018-12-18T05:34:49.032Z,94.30
2018-12-18T05:37:15.989Z,94.40
2018-12-18T05:39:42.919Z,94.50
2018-12-18T05:42:10.268Z,94.40
2018-12-18T05:44:37.422Z,94.50
2018-12-18T05:47:04.497Z,94.70
2018-12-18T05:49:31.440Z,94.60
2018-12-18T05:51:58.388Z,94.70
2018-12-18T05:54:25.333Z,93.90
2018-12-18T05:56:52.387Z,94.30
2018-12-18T05:59:19.329Z,94.30
2018-12-18T06:01:46.272Z,94.30
2018-12-18T06:04:13.240Z,94.30
2018-12-18T06:06:40.526Z,94.00
2018-12-18T06:09:07.916Z,94.00
2018-12-18T06:11:35.132Z,93.80
2018-12-18T06:14:02.140Z,93.70
2018-12-18T06:16:29.111Z,93.70
2018-12-18T06:18:56.107Z,94.00
2018-12-18T06:21:23.121Z,93.50
2018-12-18T06:23:50.086Z,93.60
2018-12-18T06:26:17.029Z,93.50
2018-12-18T06:28:43.988Z,93.50
2018-12-18T06:31:11.079Z,93.30
2018-12-18T06:33:38.076Z,93.40
2018-12-18T06:36:05.041Z,93.60
2018-12-18T06:38:31.991Z,93.30
2018-12-18T06:40:58.945Z,93.60
2018-12-18T06:43:25.917Z,93.70
2018-12-18T06:45:52.876Z,93.80
2018-12-18T06:48:19.863Z,93.90
2018-12-18T06:50:46.885Z,93.80
2018-12-18T06:53:13.861Z,93.80
2018-12-18T06:55:40.821Z,93.80
2018-12-18T06:58:07.776Z,93.80
2018-12-18T07:00:34.717Z,93.70
2018-12-18T07:03:01.681Z,93.70
2018-12-18T07:05:28.624Z,93.60
2018-12-18T07:07:57.513Z,93.60
2018-12-18T07:10:22.948Z,93.40
2018-12-18T07:12:49.891Z,93.30
2018-12-18T07:15:16.841Z,93.70
2018-12-18T07:17:43.797Z,93.60
2018-12-18T07:20:10.733Z,93.80
2018-12-18T07:22:37.667Z,94.00
2018-12-18T07:25:04.721Z,93.90
2018-12-18T07:27:31.658Z,93.90
2018-12-18T07:29:58.604Z,93.90
2018-12-18T07:32:25.564Z,93.70
2018-12-18T07:34:52.533Z,93.70
2018-12-18T07:37:19.463Z,93.60
2018-12-18T07:39:46.414Z,93.70
2018-12-18T07:42:13.360Z,93.60
2018-12-18T07:44:40.284Z,93.60
2018-12-18T07:47:07.232Z,93.70
2018-12-18T07:49:34.179Z,93.90
2018-12-18T07:52:01.124Z,94.00
2018-12-18T07:54:28.076Z,93.80
2018-12-18T07:56:55.074Z,93.80
2018-12-18T07:59:22.014Z,93.80
2018-12-18T08:01:48.964Z,93.70
2018-12-18T08:04:15.905Z,93.80
2018-12-18T08:06:42.829Z,94.00
2018-12-18T08:09:09.812Z,94.00
2018-12-18T08:11:37.333Z,93.80
2018-12-18T08:14:04.353Z,93.90
2018-12-18T08:16:31.297Z,93.80
2018-12-18T08:18:58.234Z,93.70
2018-12-18T08:21:25.172Z,93.80
2018-12-18T08:23:52.137Z,93.60
2018-12-18T08:26:19.064Z,93.40
2018-12-18T08:28:46.150Z,93.10
2018-12-18T08:31:13.198Z,92.30
2018-12-18T08:33:40.132Z,90.00
2018-12-18T08:36:07.064Z,85.10
2018-12-18T08:38:34.003Z,79.70
2018-12-18T08:41:00.930Z,74.20
2018-12-18T08:43:27.904Z,69.70
2018-12-18T08:45:54.861Z,65.90
2018-12-18T08:48:21.816Z,61.30
2018-12-18T08:50:48.756Z,59.50
2018-12-18T08:53:15.712Z,57.20
2018-12-18T08:55:42.685Z,55.70
2018-12-18T08:58:09.612Z,53.80
2018-12-18T09:00:36.617Z,52.60
2018-12-18T09:03:03.611Z,52.60
2018-12-18T09:05:30.561Z,52.80
2018-12-18T09:07:57.529Z,51.70
2018-12-18T09:10:24.468Z,50.30
2018-12-18T09:12:51.845Z,48.60
2018-12-18T09:15:24.625Z,49.70
2018-12-18T09:17:51.588Z,48.80
2018-12-18T09:20:18.531Z,49.10
2018-12-18T09:22:45.530Z,47.60
2018-12-18T09:25:12.481Z,46.60
2018-12-18T09:27:39.421Z,46.90
2018-12-18T09:30:09.121Z,45.50
2018-12-18T09:32:36.152Z,45.20
2018-12-18T09:35:03.195Z,45.50
2018-12-18T09:37:30.183Z,44.40
2018-12-18T09:39:57.115Z,42.20
2018-12-18T09:42:29.921Z,43.60
2018-12-18T09:44:56.888Z,43.10
2018-12-18T09:47:23.824Z,41.10
2018-12-18T09:49:50.762Z,40.60
2018-12-18T09:52:17.721Z,41.00
2018-12-18T09:54:44.681Z,39.80
2018-12-18T09:57:17.244Z,39.70
2018-12-18T09:59:44.233Z,39.50
2018-12-18T10:02:11.177Z,40.40
2018-12-18T10:04:38.125Z,40.80
2018-12-18T10:07:05.091Z,42.30
2018-12-18T10:09:32.024Z,46.30
2018-12-18T10:11:58.967Z,49.90
2018-12-18T10:14:26.469Z,55.00
2018-12-18T10:16:53.400Z,59.30
2018-12-18T10:19:20.333Z,62.70
2018-12-18T10:21:47.329Z,65.60
2018-12-18T10:24:14.248Z,68.10
2018-12-18T10:26:41.185Z,69.60
2018-12-18T10:29:08.150Z,70.70
2018-12-18T10:31:35.085Z,71.70
2018-12-18T10:34:02.012Z,73.20
2018-12-18T10:36:28.961Z,75.50
2018-12-18T10:38:55.920Z,77.00
2018-12-18T10:41:22.869Z,77.70
2018-12-18T10:43:49.821Z,78.50
2018-12-18T10:46:16.772Z,77.90
2018-12-18T10:48:43.751Z,74.00
2018-12-18T10:51:10.723Z,70.90
2018-12-18T10:53:37.669Z,67.30
2018-12-18T10:56:04.601Z,66.90
2018-12-18T10:58:31.571Z,64.70
2018-12-18T11:01:04.885Z,60.10
2018-12-18T11:03:31.332Z,56.50
2018-12-18T11:05:58.325Z,53.70
2018-12-18T11:08:25.271Z,50.40
2018-12-18T11:10:52.305Z,47.40
2018-12-18T11:13:19.299Z,44.70
2018-12-18T11:15:46.433Z,41.80
2018-12-18T11:18:13.423Z,40.90
2018-12-18T11:20:40.401Z,40.30
2018-12-18T11:23:07.349Z,38.10
2018-12-18T11:25:34.420Z,37.70
2018-12-18T11:28:01.392Z,37.70
2018-12-18T11:30:28.341Z,37.20
2018-12-18T11:32:55.280Z,36.90
2018-12-18T11:35:22.249Z,36.60
2018-12-18T11:37:49.212Z,36.30
2018-12-18T11:40:16.193Z,34.70
2018-12-18T11:42:43.147Z,35.20
2018-12-18T11:45:10.079Z,36.00
2018-12-18T11:47:37.016Z,35.10
2018-12-18T11:50:04.240Z,35.50
2018-12-18T11:52:31.185Z,35.20
2018-12-18T11:54:58.168Z,35.70
2018-12-18T11:57:25.125Z,35.40
2018-12-18T11:59:52.069Z,34.80
2018-12-18T12:02:19.084Z,34.20
2018-12-18T12:04:46.065Z,36.10
2018-12-18T12:07:13.130Z,37.40
2018-12-18T12:09:40.084Z,37.40
2018-12-18T12:12:07.041Z,37.40
2018-12-18T12:14:34.031Z,37.10
2018-12-18T12:17:01.654Z,36.00
2018-12-18T12:19:28.101Z,35.80
2018-12-18T12:21:55.069Z,35.50
2018-12-18T12:24:22.016Z,35.50
2018-12-18T12:26:48.980Z,35.90
2018-12-18T12:29:15.925Z,35.10
2018-12-18T12:31:42.952Z,35.10
2018-12-18T12:34:09.938Z,33.90
2018-12-18T12:36:36.877Z,35.40
2018-12-18T12:39:06.859Z,35.20
2018-12-18T12:41:33.866Z,36.70
2018-12-18T12:44:00.854Z,38.70
2018-12-18T12:46:27.800Z,40.40
2018-12-18T12:48:55.524Z,41.60
2018-12-18T12:51:22.925Z,44.20
2018-12-18T12:53:49.853Z,46.80
2018-12-18T12:56:16.837Z,48.40
2018-12-18T12:58:43.844Z,49.70
2018-12-18T13:01:10.795Z,52.20
2018-12-18T13:03:37.756Z,54.00
2018-12-18T13:06:04.701Z,55.60
2018-12-18T13:08:31.633Z,56.10
2018-12-18T13:10:58.590Z,57.00
2018-12-18T13:13:25.555Z,58.50
2018-12-18T13:15:52.484Z,58.90
2018-12-18T13:18:20.040Z,59.10
2018-12-18T13:20:46.996Z,59.80
2018-12-18T13:23:14.353Z,60.40
2018-12-18T13:25:41.329Z,61.70
2018-12-18T13:28:08.274Z,62.80
2018-12-18T13:30:35.228Z,63.10
2018-12-18T13:33:02.190Z,63.80
2018-12-18T13:35:29.145Z,63.70
2018-12-18T13:37:56.088Z,64.30
2018-12-18T13:40:23.065Z,65.00
2018-12-18T13:42:50.028Z,64.20
2018-12-18T13:45:16.973Z,64.50
2018-12-18T13:47:44.016Z,64.50
2018-12-18T13:50:10.946Z,64.90
2018-12-18T13:52:37.884Z,65.10
2018-12-18T13:55:04.855Z,64.80
2018-12-18T13:57:31.832Z,64.90
2018-12-18T13:59:58.801Z,64.50
2018-12-18T14:02:25.779Z,65.60
2018-12-18T14:04:52.704Z,65.70
2018-12-18T14:07:19.671Z,66.00
2018-12-18T14:09:46.646Z,65.30
2018-12-18T14:12:13.605Z,65.60
2018-12-18T14:14:40.574Z,66.30
2018-12-18T14:17:07.531Z,65.70
2018-12-18T14:19:34.865Z,66.20
2018-12-18T14:22:01.840Z,67.40
2018-12-18T14:24:28.816Z,67.70
2018-12-18T14:26:55.829Z,67.00
2018-12-18T14:29:22.782Z,66.80
2018-12-18T14:31:49.773Z,66.80
2018-12-18T14:34:16.849Z,67.50
2018-12-18T14:36:43.929Z,68.10
2018-12-18T14:39:11.069Z,68.60
2018-12-18T14:41:38.053Z,68.40
2018-12-18T14:44:05.331Z,68.70
2018-12-18T14:46:32.325Z,68.60
2018-12-18T14:48:59.335Z,69.30
2018-12-18T14:51:26.279Z,69.60
2018-12-18T14:53:53.282Z,69.10
2018-12-18T14:56:20.247Z,69.20
2018-12-18T14:58:47.205Z,69.80
2018-12-18T15:01:14.198Z,70.00
2018-12-18T15:03:41.149Z,70.50
2018-12-18T15:06:08.157Z,70.40
2018-12-18T15:08:35.125Z,71.10
2018-12-18T15:11:02.105Z,71.40
2018-12-18T15:13:29.934Z,71.70
2018-12-18T15:15:56.899Z,72.00
2018-12-18T15:18:23.870Z,72.80
2018-12-18T15:20:51.262Z,73.20
2018-12-18T15:23:18.293Z,73.40
2018-12-18T15:25:45.286Z,73.50
2018-12-18T15:28:12.229Z,74.00
2018-12-18T15:30:39.236Z,74.40
2018-12-18T15:33:06.186Z,74.60
2018-12-18T15:35:33.152Z,74.30
2018-12-18T15:38:00.137Z,74.20
2018-12-18T15:40:27.114Z,73.80
2018-12-18T15:42:54.045Z,73.60
2018-12-18T15:45:21.017Z,73.70
2018-12-18T15:47:48.030Z,73.90
2018-12-18T15:50:14.984Z,74.30
2018-12-18T15:52:41.958Z,74.80
2018-12-18T15:55:08.915Z,75.80
2018-12-18T15:57:35.885Z,76.40
2018-12-18T16:00:03.601Z,76.60
2018-12-18T16:02:30.588Z,76.90
2018-12-18T16:04:57.553Z,77.30
2018-12-18T16:07:24.540Z,76.90
2018-12-18T16:09:51.507Z,76.90
2018-12-18T16:12:18.501Z,76.70
2018-12-18T16:14:45.485Z,76.40
2018-12-18T16:17:12.436Z,76.80
2018-12-18T16:19:39.390Z,76.70
2018-12-18T16:22:07.040Z,77.10
2018-12-18T16:24:33.941Z,77.50
2018-12-18T16:27:00.904Z,78.50
2018-12-18T16:29:27.864Z,78.10
2018-12-18T16:31:54.804Z,78.20
2018-12-18T16:34:21.760Z,78.10
2018-12-18T16:36:48.753Z,78.20
2018-12-18T16:39:15.712Z,78.20
2018-12-18T16:41:42.652Z,78.40
2018-12-18T16:44:09.644Z,78.40
2018-12-18T16:46:36.600Z,78.10
2018-12-18T16:49:03.552Z,78.10
2018-12-18T16:51:30.511Z,78.70
2018-12-18T16:53:57.470Z,78.70
2018-12-18T16:56:24.413Z,78.70
2018-12-18T16:58:51.426Z,79.10
2018-12-18T17:01:18.373Z,79.40
2018-12-18T17:03:45.321Z,79.90
2018-12-18T17:06:12.290Z,80.10
2018-12-18T17:08:39.220Z,80.60
2018-12-18T17:11:06.249Z,80.70
2018-12-18T17:13:33.212Z,81.00
2018-12-18T17:16:00.161Z,81.20
2018-12-18T17:18:27.102Z,81.40
2018-12-18T17:20:54.050Z,81.50
2018-12-18T17:23:21.610Z,81.90
2018-12-18T17:25:48.565Z,82.60
2018-12-18T17:28:15.600Z,81.60
2018-12-18T17:30:42.544Z,82.00
2018-12-18T17:33:09.513Z,81.80
2018-12-18T17:35:36.460Z,82.20
2018-12-18T17:38:03.426Z,82.60
2018-12-18T17:40:30.673Z,82.80
2018-12-18T17:42:57.622Z,82.60
2018-12-18T17:45:24.627Z,82.40
2018-12-18T17:47:51.589Z,82.30
2018-12-18T17:50:18.632Z,82.20
2018-12-18T17:52:45.579Z,82.20
2018-12-18T17:55:12.542Z,82.40
2018-12-18T17:57:39.492Z,82.20
2018-12-18T18:00:06.897Z,81.90
2018-12-18T18:02:33.841Z,82.20
2018-12-18T18:05:00.822Z,82.20
2018-12-18T18:07:27.760Z,82.30
2018-12-18T18:09:54.755Z,82.30
2018-12-18T18:12:21.795Z,82.40
2018-12-18T18:14:48.764Z,82.70
2018-12-18T18:17:15.756Z,83.40
2018-12-18T18:19:42.740Z,83.30
2018-12-18T18:22:09.886Z,83.30
2018-12-18T18:24:37.915Z,83.60
2018-12-18T18:27:04.875Z,83.60
2018-12-18T18:29:31.865Z,83.70
2018-12-18T18:31:58.916Z,84.30
2018-12-18T18:34:25.957Z,84.30
2018-12-18T18:36:52.908Z,84.60
2018-12-18T18:39:19.848Z,84.60
2018-12-18T18:41:46.796Z,84.80
2018-12-18T18:44:13.751Z,85.10
2018-12-18T18:46:40.716Z,85.10
2018-12-18T18:49:07.870Z,85.30
2018-12-18T18:51:35.246Z,85.40
2018-12-18T18:54:02.175Z,85.40
2018-12-18T18:56:29.172Z,85.10
2018-12-18T18:58:56.117Z,85.40
2018-12-18T19:01:23.056Z,85.30
2018-12-18T19:03:50.072Z,85.40
2018-12-18T19:06:17.008Z,85.30
2018-12-18T19:08:43.954Z,85.60
2018-12-18T19:11:10.932Z,85.60
2018-12-18T19:13:37.883Z,85.60
2018-12-18T19:16:04.833Z,85.60
2018-12-18T19:18:31.789Z,85.60
2018-12-18T19:20:58.740Z,85.90
2018-12-18T19:23:25.697Z,86.10
2018-12-18T19:25:52.831Z,85.90
2018-12-18T19:28:19.796Z,86.30
2018-12-18T19:30:46.718Z,86.80
2018-12-18T19:33:13.702Z,87.00
2018-12-18T19:35:40.637Z,86.90
2018-12-18T19:38:07.749Z,87.00
2018-12-18T19:40:35.129Z,87.00
2018-12-18T19:43:02.199Z,87.30
2018-12-18T19:45:29.490Z,87.40
2018-12-18T19:47:56.476Z,87.40
2018-12-18T19:50:23.550Z,87.60
2018-12-18T19:52:50.585Z,87.60
2018-12-18T19:55:17.673Z,87.40
2018-12-18T19:57:44.705Z,87.60
2018-12-18T20:00:11.640Z,87.90
2018-12-18T20:02:38.764Z,88.00
2018-12-18T20:05:05.850Z,88.40
2018-12-18T20:07:33.045Z,88.50
2018-12-18T20:10:00.375Z,88.70
2018-12-18T20:12:27.376Z,88.70
2018-12-18T20:14:54.324Z,89.20
2018-12-18T20:17:21.272Z,89.70
2018-12-18T20:19:48.213Z,89.50
2018-12-18T20:22:15.169Z,89.50
2018-12-18T20:24:42.133Z,89.80
2018-12-18T20:27:09.656Z,90.10
2018-12-18T20:29:36.638Z,90.10
2018-12-18T20:32:03.660Z,90.00
2018-12-18T20:34:30.625Z,89.90
2018-12-18T20:36:57.552Z,90.20
2018-12-18T20:39:24.521Z,90.20
2018-12-18T20:41:51.498Z,90.50
2018-12-18T20:44:18.481Z,90.70
2018-12-18T20:46:45.506Z,90.80
2018-12-18T20:49:12.457Z,90.80
2018-12-18T20:51:39.400Z,90.70
2018-12-18T20:54:06.407Z,90.80
2018-12-18T20:56:33.356Z,90.90
2018-12-18T20:59:00.316Z,91.10
2018-12-18T21:01:28.593Z,91.10
2018-12-18T21:03:55.097Z,90.90
2018-12-18T21:06:22.121Z,90.90
2018-12-18T21:08:49.164Z,91.10
2018-12-18T21:11:16.187Z,90.90
2018-12-18T21:13:43.369Z,91.00
2018-12-18T21:16:10.406Z,91.00
2018-12-18T21:18:37.441Z,91.00
2018-12-18T21:21:04.492Z,91.00
2018-12-18T21:23:31.540Z,91.10
2018-12-18T21:25:58.582Z,91.20
2018-12-18T21:28:26.051Z,91.00
2018-12-18T21:30:53.101Z,90.80
2018-12-18T21:33:20.129Z,90.80
2018-12-18T21:35:47.141Z,90.90
2018-12-18T21:38:14.188Z,90.90
2018-12-18T21:40:41.204Z,91.10
2018-12-18T21:43:08.226Z,91.10
2018-12-18T21:45:35.278Z,91.00
2018-12-18T21:48:02.293Z,91.30
2018-12-18T21:50:29.319Z,90.90
2018-12-18T21:52:56.355Z,91.00
2018-12-18T21:55:23.398Z,91.00
2018-12-18T21:57:50.446Z,91.10
2018-12-18T22:00:17.474Z,90.90
2018-12-18T22:02:44.484Z,91.00
2018-12-18T22:05:11.519Z,91.00
2018-12-18T22:07:38.576Z,91.00
2018-12-18T22:10:06.685Z,91.00
2018-12-18T22:12:33.697Z,91.10
2018-12-18T22:15:00.731Z,91.10
2018-12-18T22:17:27.793Z,91.00
2018-12-18T22:19:54.868Z,90.70
2018-12-18T22:22:21.896Z,90.70
2018-12-18T22:24:48.985Z,91.20
2018-12-18T22:27:15.932Z,90.80
2018-12-18T22:29:43.365Z,90.80
2018-12-18T22:32:10.322Z,90.70
2018-12-18T22:34:37.276Z,90.90
2018-12-18T22:37:04.231Z,91.00
2018-12-18T22:39:31.193Z,91.20
2018-12-18T22:41:58.140Z,91.10
2018-12-18T22:44:25.078Z,91.00
2018-12-18T22:46:52.021Z,91.10
2018-12-18T22:49:18.984Z,91.20
2018-12-18T22:51:45.990Z,91.20
2018-12-18T22:54:12.923Z,91.20
2018-12-18T22:56:39.880Z,91.30
2018-12-18T22:59:07.019Z,91.40
2018-12-18T23:01:43.820Z,91.30
2018-12-18T23:04:11.251Z,91.30
2018-12-18T23:06:38.197Z,91.30
2018-12-18T23:09:06.514Z,91.40
2018-12-18T23:11:33.552Z,91.80
2018-12-18T23:14:00.579Z,91.30
2018-12-18T23:16:27.525Z,91.20
2018-12-18T23:18:54.501Z,91.10
2018-12-18T23:21:21.461Z,91.10
2018-12-18T23:23:48.402Z,91.10
2018-12-18T23:26:15.378Z,90.90
2018-12-18T23:28:42.376Z,90.70
2018-12-18T23:31:09.685Z,90.70
2018-12-18T23:33:36.785Z,90.50
2018-12-18T23:36:03.716Z,90.50
2018-12-18T23:38:30.685Z,90.50
2018-12-18T23:40:57.646Z,90.60
2018-12-18T23:43:24.587Z,90.50
2018-12-18T23:45:51.602Z,90.50
2018-12-18T23:48:18.540Z,90.60
2018-12-18T23:50:45.504Z,90.70
2018-12-18T23:53:12.453Z,90.80
2018-12-18T23:55:39.407Z,90.90
2018-12-18T23:58:06.337Z,90.80
